createdAt,value
2019-04-26T00:00:16.246Z,96.40
2019-04-26T00:02:49.677Z,96.70
2019-04-26T00:05:16.472Z,96.60
2019-04-26T00:07:43.048Z,96.90
2019-04-26T00:10:20.278Z,96.80
2019-04-26T00:12:50.556Z,97.20
2019-04-26T00:15:19.028Z,97.70
2019-04-26T00:17:47.364Z,97.70
2019-04-26T00:20:13.519Z,97.10
2019-04-26T00:22:39.708Z,97.20
2019-04-26T00:25:06.265Z,96.80
2019-04-26T00:27:32.491Z,97.00
2019-04-26T00:29:58.650Z,96.80
2019-04-26T00:32:24.988Z,97.10
2019-04-26T00:34:51.402Z,97.50
2019-04-26T00:37:17.978Z,96.50
2019-04-26T00:39:44.220Z,96.60
2019-04-26T00:42:10.388Z,96.10
2019-04-26T00:44:36.849Z,96.90
2019-04-26T00:47:04.069Z,96.40
2019-04-26T00:49:43.123Z,96.80
2019-04-26T00:52:01.578Z,96.60
2019-04-26T00:54:28.018Z,96.50
2019-04-26T00:56:55.359Z,96.80
2019-04-26T00:59:22.575Z,96.30
2019-04-26T01:01:51.006Z,96.70
2019-04-26T01:04:17.180Z,96.50
2019-04-26T01:06:45.235Z,96.70
2019-04-26T01:09:11.375Z,96.40
2019-04-26T01:11:38.651Z,96.40
2019-04-26T01:14:04.867Z,96.60
2019-04-26T01:16:31.048Z,96.50
2019-04-26T01:18:57.783Z,96.40
2019-04-26T01:21:27.726Z,96.00
2019-04-26T01:23:56.670Z,96.10
2019-04-26T01:26:29.587Z,96.40
2019-04-26T01:29:08.708Z,96.20
2019-04-26T01:31:38.885Z,96.30
2019-04-26T01:34:05.380Z,96.40
2019-04-26T01:36:32.857Z,96.40
2019-04-26T01:39:02.986Z,96.30
2019-04-26T01:41:35.727Z,96.90
2019-04-26T01:44:06.602Z,97.20
2019-04-26T01:46:43.569Z,96.20
2019-04-26T01:49:10.508Z,96.40
2019-04-26T01:51:40.682Z,96.10
2019-04-26T01:54:10.527Z,95.80
2019-04-26T01:56:36.655Z,96.10
2019-04-26T01:59:05.411Z,95.80
2019-04-26T02:01:36.215Z,96.10
2019-04-26T02:04:02.826Z,96.40
2019-04-26T02:06:33.294Z,96.00
2019-04-26T02:08:56.999Z,95.70
2019-04-26T02:11:24.095Z,95.80
2019-04-26T02:13:51.395Z,95.40
2019-04-26T02:16:17.634Z,95.70
2019-04-26T02:18:43.971Z,95.20
2019-04-26T02:21:21.218Z,95.10
2019-04-26T02:24:02.259Z,95.30
2019-04-26T02:26:32.688Z,95.50
2019-04-26T02:29:01.420Z,95.70
2019-04-26T02:31:29.270Z,95.30
2019-04-26T02:33:56.437Z,95.70
2019-04-26T02:36:22.875Z,95.90
2019-04-26T02:38:50.634Z,95.70
2019-04-26T02:41:16.867Z,96.20
2019-04-26T02:43:47.810Z,95.80
2019-04-26T02:46:29.322Z,96.60
2019-04-26T02:49:13.381Z,95.90
2019-04-26T02:51:49.451Z,96.50
2019-04-26T02:54:19.392Z,96.90
2019-04-26T02:56:46.449Z,97.00
2019-04-26T02:59:25.227Z,96.50
2019-04-26T03:01:53.973Z,97.00
2019-04-26T03:04:22.910Z,96.80
2019-04-26T03:07:02.978Z,96.90
2019-04-26T03:09:19.089Z,97.00
2019-04-26T03:11:51.861Z,96.70
2019-04-26T03:14:22.730Z,96.70
2019-04-26T03:16:54.555Z,96.40
2019-04-26T03:19:36.198Z,96.40
2019-04-26T03:22:08.103Z,96.90
2019-04-26T03:24:43.590Z,97.30
2019-04-26T03:27:16.584Z,97.60
2019-04-26T03:29:46.558Z,96.90
2019-04-26T03:32:25.705Z,97.70
2019-04-26T03:35:00.308Z,97.60
2019-04-26T03:37:54.868Z,97.50
2019-04-26T03:40:38.201Z,97.40
2019-04-26T03:43:17.096Z,97.60
2019-04-26T03:46:11.170Z,97.70
2019-04-26T03:48:44.874Z,97.60
2019-04-26T03:51:31.540Z,97.20
2019-04-26T03:54:01.732Z,97.60
2019-04-26T03:56:40.470Z,97.90
2019-04-26T03:59:13.530Z,98.60
2019-04-26T04:01:46.299Z,97.50
2019-04-26T04:04:33.575Z,97.80
2019-04-26T04:07:04.765Z,97.10
2019-04-26T04:09:33.689Z,97.20
2019-04-26T04:12:11.479Z,97.50
2019-04-26T04:14:45.086Z,97.30
2019-04-26T04:17:31.343Z,97.60
2019-04-26T04:20:17.758Z,97.50
2019-04-26T04:22:50.732Z,97.50
2019-04-26T04:25:35.607Z,97.00
2019-04-26T04:28:05.545Z,96.70
2019-04-26T04:30:41.521Z,97.10
2019-04-26T04:33:27.979Z,97.00
2019-04-26T04:35:57.920Z,97.20
2019-04-26T04:38:33.720Z,97.20
2019-04-26T04:41:14.427Z,97.10
2019-04-26T04:43:58.401Z,96.90
2019-04-26T04:46:33.264Z,96.90
2019-04-26T04:49:36.418Z,97.60
2019-04-26T04:52:22.855Z,97.50
2019-04-26T04:55:07.638Z,97.10
2019-04-26T04:57:48.392Z,98.20
2019-04-26T05:00:20.461Z,97.40
2019-04-26T05:03:07.182Z,97.90
2019-04-26T05:06:06.618Z,97.20
2019-04-26T05:08:52.606Z,97.60
2019-04-26T05:11:46.153Z,97.80
2019-04-26T05:14:28.043Z,97.40
2019-04-26T05:17:21.949Z,97.80
2019-04-26T05:19:57.979Z,97.40
2019-04-26T05:22:47.741Z,97.50
2019-04-26T05:25:37.031Z,96.70
2019-04-26T05:28:17.768Z,96.70
2019-04-26T05:31:07.803Z,97.30
2019-04-26T05:33:38.455Z,97.40
2019-04-26T05:36:13.310Z,97.50
2019-04-26T05:38:55.383Z,97.10
2019-04-26T05:41:36.337Z,97.10
2019-04-26T05:44:29.449Z,97.30
2019-04-26T05:47:19.112Z,96.90
2019-04-26T05:50:09.247Z,97.00
2019-04-26T05:52:55.511Z,96.80
2019-04-26T05:55:46.303Z,97.00
2019-04-26T05:58:24.540Z,96.70
2019-04-26T06:01:21.475Z,96.90
2019-04-26T06:04:22.847Z,96.70
2019-04-26T06:07:12.339Z,96.90
2019-04-26T06:10:05.019Z,96.30
2019-04-26T06:12:36.959Z,96.00
2019-04-26T06:15:08.215Z,96.50
2019-04-26T06:17:46.140Z,96.80
2019-04-26T06:20:31.024Z,96.10
2019-04-26T06:23:03.738Z,95.80
2019-04-26T06:26:01.455Z,95.70
2019-04-26T06:28:43.461Z,95.60
2019-04-26T06:31:19.330Z,94.30
2019-04-26T06:33:52.081Z,95.30
2019-04-26T06:36:22.388Z,94.70
2019-04-26T06:39:11.890Z,94.60
2019-04-26T06:42:06.232Z,94.80
2019-04-26T06:45:16.187Z,95.90
2019-04-26T06:48:03.962Z,95.00
2019-04-26T06:50:36.055Z,95.10
2019-04-26T06:53:34.356Z,94.40
2019-04-26T06:56:28.655Z,94.70
2019-04-26T06:59:01.401Z,94.70
2019-04-26T07:01:36.797Z,94.90
2019-04-26T07:04:10.039Z,94.30
2019-04-26T07:07:11.674Z,94.90
2019-04-26T07:09:59.121Z,94.00
2019-04-26T07:12:48.646Z,93.70
2019-04-26T07:15:38.418Z,93.70
2019-04-26T07:18:29.276Z,94.20
2019-04-26T07:21:29.967Z,94.00
2019-04-26T07:24:21.467Z,93.40
2019-04-26T07:27:11.010Z,94.10
2019-04-26T07:29:52.793Z,94.50
2019-04-26T07:32:37.957Z,95.20
2019-04-26T07:35:18.875Z,94.40
2019-04-26T07:37:54.844Z,94.60
2019-04-26T07:40:52.452Z,93.60
2019-04-26T07:43:33.208Z,94.00
2019-04-26T07:46:20.691Z,94.10
2019-04-26T07:48:59.265Z,94.40
2019-04-26T07:51:52.295Z,94.50
2019-04-26T07:54:55.560Z,94.80
2019-04-26T07:57:39.264Z,95.00
2019-04-26T08:00:25.236Z,94.50
2019-04-26T08:03:06.978Z,94.20
2019-04-26T08:05:46.671Z,94.50
2019-04-26T08:08:19.390Z,94.60
2019-04-26T08:10:52.091Z,94.30
2019-04-26T08:13:20.543Z,94.30
2019-04-26T08:16:08.520Z,94.70
2019-04-26T08:18:53.766Z,94.20
2019-04-26T08:21:26.991Z,94.00
2019-04-26T08:23:57.824Z,94.70
2019-04-26T08:26:27.867Z,94.20
2019-04-26T08:29:00.696Z,93.70
2019-04-26T08:31:27.844Z,93.00
2019-04-26T08:34:00.007Z,93.10
2019-04-26T08:36:30.440Z,93.30
2019-04-26T08:38:59.083Z,92.80
2019-04-26T08:41:25.412Z,93.00
2019-04-26T08:43:56.389Z,92.40
2019-04-26T08:46:36.310Z,91.90
2019-04-26T08:49:11.773Z,91.50
2019-04-26T08:51:39.005Z,91.90
2019-04-26T08:54:08.687Z,91.30
2019-04-26T08:56:41.167Z,91.90
2019-04-26T08:59:14.171Z,92.00
2019-04-26T09:01:45.484Z,91.20
2019-04-26T09:04:15.259Z,91.60
2019-04-26T09:06:59.018Z,90.90
2019-04-26T09:09:28.865Z,91.90
2019-04-26T09:11:59.692Z,90.90
2019-04-26T09:14:28.946Z,90.50
2019-04-26T09:16:55.184Z,91.00
2019-04-26T09:19:21.327Z,90.90
2019-04-26T09:21:51.785Z,91.30
2019-04-26T09:24:21.030Z,91.00
2019-04-26T09:26:55.363Z,91.10
2019-04-26T09:29:29.764Z,91.70
2019-04-26T09:32:14.170Z,91.80
2019-04-26T09:34:42.829Z,91.50
2019-04-26T09:37:09.455Z,91.40
2019-04-26T09:39:35.596Z,91.30
2019-04-26T09:42:09.587Z,91.30
2019-04-26T09:44:43.024Z,91.20
2019-04-26T09:47:28.871Z,90.70
2019-04-26T09:50:15.402Z,91.00
2019-04-26T09:52:49.209Z,91.20
2019-04-26T09:55:15.347Z,90.40
2019-04-26T09:57:41.714Z,90.50
2019-04-26T10:00:14.284Z,90.60
2019-04-26T10:02:40.893Z,90.80
2019-04-26T10:05:08.026Z,90.50
2019-04-26T10:07:37.566Z,88.40
2019-04-26T10:10:04.434Z,89.10
2019-04-26T10:12:33.239Z,89.10
2019-04-26T10:15:01.512Z,88.60
2019-04-26T10:17:31.455Z,87.20
2019-04-26T10:19:57.591Z,87.40
2019-04-26T10:22:25.623Z,87.50
2019-04-26T10:24:51.764Z,85.80
2019-04-26T10:27:17.991Z,86.50
2019-04-26T10:29:44.131Z,87.10
2019-04-26T10:32:10.280Z,86.50
2019-04-26T10:34:36.409Z,85.50
2019-04-26T10:37:06.047Z,86.00
2019-04-26T10:39:32.488Z,85.60
2019-04-26T10:41:58.919Z,85.20
2019-04-26T10:44:25.051Z,85.50
2019-04-26T10:46:55.533Z,84.20
2019-04-26T10:49:37.485Z,85.00
2019-04-26T10:52:12.071Z,83.90
2019-04-26T10:54:41.096Z,83.40
2019-04-26T10:57:09.279Z,83.10
2019-04-26T10:59:39.905Z,84.20
2019-04-26T11:02:10.953Z,84.60
2019-04-26T11:04:37.364Z,83.80
2019-04-26T11:07:05.343Z,84.20
2019-04-26T11:09:31.486Z,83.80
2019-04-26T11:11:57.623Z,84.00
2019-04-26T11:14:24.240Z,83.90
2019-04-26T11:16:50.589Z,85.60
2019-04-26T11:19:16.736Z,82.90
2019-04-26T11:21:42.864Z,81.90
2019-04-26T11:24:09.040Z,82.20
2019-04-26T11:26:36.210Z,82.60
2019-04-26T11:29:02.708Z,80.60
2019-04-26T11:31:29.294Z,80.50
2019-04-26T11:34:04.742Z,79.10
2019-04-26T11:36:23.582Z,78.10
2019-04-26T11:38:49.998Z,78.20
2019-04-26T11:41:16.131Z,77.20
2019-04-26T11:43:42.367Z,77.70
2019-04-26T11:46:08.547Z,75.40
2019-04-26T11:48:34.857Z,75.50
2019-04-26T11:51:00.993Z,76.50
2019-04-26T11:53:27.127Z,76.70
2019-04-26T11:55:53.260Z,77.30
2019-04-26T11:58:22.650Z,75.70
2019-04-26T12:00:52.131Z,75.80
2019-04-26T12:03:21.233Z,74.80
2019-04-26T12:05:51.090Z,74.60
2019-04-26T12:08:19.131Z,74.10
2019-04-26T12:10:45.940Z,73.80
2019-04-26T12:13:12.327Z,74.10
2019-04-26T12:15:39.016Z,75.20
2019-04-26T12:18:09.784Z,75.10
2019-04-26T12:20:34.799Z,74.00
2019-04-26T12:23:00.932Z,73.80
2019-04-26T12:25:27.291Z,72.60
2019-04-26T12:27:53.760Z,74.10
2019-04-26T12:30:24.731Z,73.50
2019-04-26T12:32:50.040Z,71.60
2019-04-26T12:35:16.036Z,72.00
2019-04-26T12:37:42.155Z,72.30
2019-04-26T12:40:11.373Z,72.70
2019-04-26T12:42:37.567Z,71.50
2019-04-26T12:45:12.257Z,71.10
2019-04-26T12:47:40.083Z,70.10
2019-04-26T12:50:06.431Z,69.20
2019-04-26T12:52:32.559Z,71.00
2019-04-26T12:54:58.738Z,70.00
2019-04-26T12:57:25.083Z,69.50
2019-04-26T12:59:51.219Z,71.00
2019-04-26T13:02:20.827Z,70.70
2019-04-26T13:04:46.619Z,71.40
2019-04-26T13:07:23.985Z,71.00
2019-04-26T13:09:52.884Z,70.90
2019-04-26T13:12:20.906Z,69.70
2019-04-26T13:15:00.617Z,68.70
2019-04-26T13:17:37.534Z,68.80
2019-04-26T13:20:05.406Z,68.10
2019-04-26T13:22:32.101Z,67.70
2019-04-26T13:24:58.399Z,68.90
2019-04-26T13:27:24.539Z,68.30
2019-04-26T13:30:01.939Z,67.30
2019-04-26T13:32:18.714Z,68.30
2019-04-26T13:34:45.091Z,67.70
2019-04-26T13:37:11.475Z,66.60
2019-04-26T13:39:37.623Z,66.10
2019-04-26T13:42:09.161Z,67.00
2019-04-26T13:44:50.035Z,66.60
2019-04-26T13:47:21.055Z,65.00
2019-04-26T13:49:52.369Z,64.10
2019-04-26T13:52:17.135Z,64.50
2019-04-26T13:54:44.274Z,64.90
2019-04-26T13:57:11.265Z,65.30
2019-04-26T13:59:37.560Z,61.80
2019-04-26T14:02:11.475Z,61.80
2019-04-26T14:04:31.939Z,63.70
2019-04-26T14:06:58.082Z,63.90
2019-04-26T14:09:24.223Z,66.40
2019-04-26T14:11:50.488Z,65.50
2019-04-26T14:14:16.718Z,63.30
2019-04-26T14:16:43.616Z,63.10
2019-04-26T14:19:14.731Z,65.00
2019-04-26T14:21:39.295Z,63.70
2019-04-26T14:24:25.059Z,64.70
2019-04-26T14:26:53.271Z,62.80
2019-04-26T14:29:19.396Z,63.60
2019-04-26T14:31:47.188Z,63.20
2019-04-26T14:34:13.558Z,63.70
2019-04-26T14:36:39.697Z,64.70
2019-04-26T14:39:10.583Z,64.40
2019-04-26T14:41:37.230Z,63.90
2019-04-26T14:44:14.786Z,64.20
2019-04-26T14:46:32.089Z,64.40
2019-04-26T14:49:02.716Z,64.90
2019-04-26T14:51:26.252Z,64.80
2019-04-26T14:53:52.403Z,65.20
2019-04-26T14:56:18.774Z,65.60
2019-04-26T14:58:45.124Z,66.40
2019-04-26T15:01:13.175Z,65.90
2019-04-26T15:03:43.001Z,64.80
2019-04-26T15:06:16.828Z,65.00
2019-04-26T15:08:45.268Z,64.60
2019-04-26T15:11:12.724Z,65.40
2019-04-26T15:13:40.557Z,65.30
2019-04-26T15:16:10.206Z,65.50
2019-04-26T15:18:37.160Z,64.90
2019-04-26T15:21:04.243Z,63.50
2019-04-26T15:23:30.552Z,64.40
2019-04-26T15:25:58.494Z,62.50
2019-04-26T15:28:24.866Z,62.50
2019-04-26T15:30:52.736Z,61.90
2019-04-26T15:33:19.051Z,61.90
2019-04-26T15:35:47.027Z,60.90
2019-04-26T15:38:13.190Z,60.00
2019-04-26T15:40:42.502Z,59.80
2019-04-26T15:43:14.911Z,59.80
2019-04-26T15:45:43.421Z,60.30
2019-04-26T15:48:27.921Z,59.30
2019-04-26T15:50:54.852Z,58.40
2019-04-26T15:53:22.122Z,58.90
2019-04-26T15:55:49.048Z,59.30
2019-04-26T15:58:15.189Z,60.40
2019-04-26T16:00:42.818Z,60.00
2019-04-26T16:03:09.100Z,60.00
2019-04-26T16:05:35.367Z,60.70
2019-04-26T16:08:04.457Z,61.30
2019-04-26T16:10:34.727Z,62.70
2019-04-26T16:13:01.262Z,61.90
2019-04-26T16:15:26.260Z,61.50
2019-04-26T16:17:52.403Z,62.70
2019-04-26T16:20:18.544Z,63.00
2019-04-26T16:22:44.679Z,62.80
2019-04-26T16:25:12.113Z,64.10
2019-04-26T16:27:38.360Z,67.10
2019-04-26T16:30:07.802Z,68.30
2019-04-26T16:32:38.717Z,73.10
2019-04-26T16:35:05.958Z,71.20
2019-04-26T16:37:33.079Z,68.20
2019-04-26T16:40:00.479Z,71.50
2019-04-26T16:42:26.719Z,69.80
2019-04-26T16:44:55.063Z,67.10
2019-04-26T16:47:23.259Z,68.20
2019-04-26T16:49:49.164Z,67.50
2019-04-26T16:52:15.407Z,67.90
2019-04-26T16:54:42.424Z,67.20
2019-04-26T16:57:11.348Z,66.70
2019-04-26T16:59:36.813Z,67.80
2019-04-26T17:02:03.436Z,67.00
2019-04-26T17:04:32.434Z,66.00
2019-04-26T17:07:01.751Z,66.70
2019-04-26T17:09:29.700Z,66.80
2019-04-26T17:11:54.016Z,66.40
2019-04-26T17:14:24.043Z,65.20
2019-04-26T17:16:49.195Z,65.60
2019-04-26T17:19:15.332Z,67.70
2019-04-26T17:21:43.624Z,68.00
2019-04-26T17:24:20.439Z,66.80
2019-04-26T17:26:48.482Z,68.40
2019-04-26T17:29:14.875Z,70.20
2019-04-26T17:31:41.019Z,69.60
2019-04-26T17:34:07.158Z,69.00
2019-04-26T17:36:34.535Z,69.90
2019-04-26T17:39:01.089Z,70.20
2019-04-26T17:41:27.535Z,71.50
2019-04-26T17:44:06.314Z,71.20
2019-04-26T17:46:21.733Z,70.90
2019-04-26T17:48:49.463Z,71.60
2019-04-26T17:51:18.968Z,72.50
2019-04-26T17:53:47.989Z,71.30
2019-04-26T17:56:13.419Z,71.10
2019-04-26T17:58:51.207Z,72.00
2019-04-26T18:01:07.816Z,71.80
2019-04-26T18:03:34.076Z,73.10
2019-04-26T18:06:01.021Z,73.30
2019-04-26T18:08:38.657Z,73.70
2019-04-26T18:10:55.980Z,74.20
2019-04-26T18:13:22.212Z,74.60
2019-04-26T18:15:48.752Z,74.50
2019-04-26T18:18:34.157Z,74.60
2019-04-26T18:21:05.384Z,74.20
2019-04-26T18:23:31.727Z,75.00
2019-04-26T18:25:57.877Z,74.80
2019-04-26T18:28:24.016Z,76.00
2019-04-26T18:30:50.175Z,76.00
2019-04-26T18:33:17.580Z,75.90
2019-04-26T18:35:48.843Z,76.70
2019-04-26T18:38:13.466Z,75.20
2019-04-26T18:40:58.965Z,75.70
2019-04-26T18:43:07.707Z,76.30
2019-04-26T18:45:34.443Z,78.30
2019-04-26T18:48:01.954Z,78.90
2019-04-26T18:50:32.859Z,78.10
2019-04-26T18:53:14.011Z,77.70
2019-04-26T18:55:40.563Z,78.00
2019-04-26T18:58:06.946Z,78.90
2019-04-26T19:00:35.388Z,80.30
2019-04-26T19:03:01.539Z,81.60
2019-04-26T19:05:30.076Z,82.30
2019-04-26T19:07:55.957Z,83.90
2019-04-26T19:10:25.808Z,83.80
2019-04-26T19:12:52.274Z,84.30
2019-04-26T19:15:21.943Z,83.50
2019-04-26T19:17:51.618Z,84.80
2019-04-26T19:20:32.294Z,81.90
2019-04-26T19:23:00.126Z,81.30
2019-04-26T19:25:30.011Z,82.50
2019-04-26T19:27:58.651Z,81.10
2019-04-26T19:30:22.666Z,83.90
2019-04-26T19:32:49.154Z,84.90
2019-04-26T19:35:15.995Z,85.60
2019-04-26T19:37:43.399Z,87.00
2019-04-26T19:40:12.293Z,86.80
2019-04-26T19:42:39.115Z,87.60
2019-04-26T19:45:14.256Z,87.70
2019-04-26T19:47:53.974Z,87.80
2019-04-26T19:50:42.353Z,87.70
2019-04-26T19:53:16.613Z,88.20
2019-04-26T19:55:56.029Z,87.50
2019-04-26T19:58:26.916Z,88.50
2019-04-26T20:00:53.054Z,87.90
2019-04-26T20:03:20.258Z,88.20
2019-04-26T20:05:46.556Z,89.40
2019-04-26T20:08:12.848Z,88.20
2019-04-26T20:10:40.674Z,88.10
2019-04-26T20:13:07.483Z,88.50
2019-04-26T20:15:35.288Z,88.40
2019-04-26T20:18:04.004Z,88.20
2019-04-26T20:20:34.537Z,86.60
2019-04-26T20:23:03.410Z,86.80
2019-04-26T20:25:29.900Z,88.50
2019-04-26T20:27:59.899Z,87.60
2019-04-26T20:30:34.688Z,88.00
2019-04-26T20:33:01.759Z,88.40
2019-04-26T20:35:29.311Z,90.40
2019-04-26T20:37:56.280Z,90.00
2019-04-26T20:40:25.490Z,90.50
2019-04-26T20:42:57.189Z,90.30
2019-04-26T20:45:21.723Z,90.20
2019-04-26T20:47:51.984Z,90.00
2019-04-26T20:50:16.823Z,90.70
2019-04-26T20:52:45.293Z,90.50
2019-04-26T20:55:11.687Z,90.60
2019-04-26T20:57:42.736Z,90.20
2019-04-26T21:00:08.305Z,91.00
2019-04-26T21:02:36.339Z,91.00
2019-04-26T21:05:06.100Z,91.50
2019-04-26T21:07:32.601Z,91.80
2019-04-26T21:09:58.885Z,91.60
2019-04-26T21:12:25.256Z,91.30
2019-04-26T21:14:51.728Z,91.30
2019-04-26T21:17:23.646Z,91.60
2019-04-26T21:19:49.774Z,91.10
2019-04-26T21:22:18.376Z,90.10
2019-04-26T21:24:45.510Z,90.90
2019-04-26T21:27:31.782Z,90.70
2019-04-26T21:30:03.152Z,90.80
2019-04-26T21:32:35.441Z,91.60
2019-04-26T21:35:05.968Z,91.20
2019-04-26T21:37:34.474Z,91.00
2019-04-26T21:40:22.732Z,90.80
2019-04-26T21:42:45.318Z,90.60
2019-04-26T21:45:11.836Z,90.60
2019-04-26T21:47:38.045Z,89.40
2019-04-26T21:50:05.269Z,89.00
2019-04-26T21:52:31.626Z,88.80
2019-04-26T21:54:58.793Z,87.20
2019-04-26T21:57:27.873Z,88.00
2019-04-26T21:59:54.084Z,87.30
2019-04-26T22:02:20.840Z,87.40
2019-04-26T22:04:46.972Z,86.80
2019-04-26T22:07:14.579Z,86.20
2019-04-26T22:09:52.898Z,86.50
2019-04-26T22:12:19.734Z,86.90
2019-04-26T22:14:50.582Z,86.50
2019-04-26T22:17:17.927Z,85.50
2019-04-26T22:19:57.823Z,85.40
2019-04-26T22:22:26.046Z,85.80
2019-04-26T22:24:55.494Z,85.70
2019-04-26T22:27:25.227Z,85.00
2019-04-26T22:29:51.740Z,84.90
2019-04-26T22:32:19.285Z,85.50
2019-04-26T22:34:46.374Z,85.60
2019-04-26T22:37:13.270Z,86.00
2019-04-26T22:39:41.262Z,86.30
2019-04-26T22:42:08.246Z,86.50
2019-04-26T22:44:43.497Z,86.40
2019-04-26T22:47:13.904Z,86.00
2019-04-26T22:49:41.648Z,85.80
2019-04-26T22:52:11.243Z,85.20
2019-04-26T22:54:37.788Z,85.10
2019-04-26T22:57:04.009Z,85.90
2019-04-26T22:59:30.477Z,86.10
2019-04-26T23:01:56.733Z,87.10
2019-04-26T23:04:26.394Z,86.70
2019-04-26T23:06:50.925Z,87.40
2019-04-26T23:09:20.430Z,87.30
2019-04-26T23:11:47.179Z,87.90
2019-04-26T23:14:18.839Z,86.70
2019-04-26T23:17:01.742Z,87.30
2019-04-26T23:19:20.753Z,88.20
2019-04-26T23:21:52.915Z,88.70
2019-04-26T23:24:18.959Z,88.80
2019-04-26T23:26:45.334Z,88.30
2019-04-26T23:29:16.319Z,89.00
2019-04-26T23:31:41.667Z,89.20
2019-04-26T23:34:07.653Z,89.10
2019-04-26T23:36:34.882Z,89.30
2019-04-26T23:39:01.149Z,89.70
2019-04-26T23:41:29.185Z,89.50
2019-04-26T23:44:02.513Z,89.60
2019-04-26T23:46:25.937Z,89.30
2019-04-26T23:48:51.395Z,89.20
2019-04-26T23:51:17.531Z,89.60
2019-04-26T23:53:44.904Z,89.10
2019-04-26T23:56:16.188Z,88.70
2019-04-26T23:58:40.301Z,87.50
